sensor_id;sensor_type;location;lat;lon;timestamp;pressure;altitude;pressure_sealevel;temperature;humidity
40075;BME280;26529;51.530;11.754;2022-08-18T00:00:07;99627.06;;;26.87;38.99
40075;BME280;26529;51.530;11.754;2022-08-18T00:02:40;99634.50;;;26.93;39.02
40075;BME280;26529;51.530;11.754;2022-08-18T00:05:06;99629.06;;;26.85;39.07
40075;BME280;26529;51.530;11.754;2022-08-18T00:07:33;99617.66;;;26.82;38.99
40075;BME280;26529;51.530;11.754;2022-08-18T00:09:59;99627.91;;;26.87;38.97
40075;BME280;26529;51.530;11.754;2022-08-18T00:12:29;99624.69;;;26.75;39.13
40075;BME280;26529;51.530;11.754;2022-08-18T00:14:56;99616.44;;;26.77;39.01
40075;BME280;26529;51.530;11.754;2022-08-18T00:17:22;99618.97;;;26.78;39.08
40075;BME280;26529;51.530;11.754;2022-08-18T00:19:48;99613.94;;;26.75;39.16
40075;BME280;26529;51.530;11.754;2022-08-18T00:22:17;99618.47;;;26.75;39.29
40075;BME280;26529;51.530;11.754;2022-08-18T00:24:45;99613.09;;;26.75;38.81
40075;BME280;26529;51.530;11.754;2022-08-18T00:27:10;99619.63;;;26.72;39.13
40075;BME280;26529;51.530;11.754;2022-08-18T00:29:36;99614.41;;;26.71;39.27
40075;BME280;26529;51.530;11.754;2022-08-18T00:32:13;99613.22;;;26.65;38.97
40075;BME280;26529;51.530;11.754;2022-08-18T00:34:39;99617.22;;;26.61;39.34
40075;BME280;26529;51.530;11.754;2022-08-18T00:37:04;99624.97;;;26.55;39.47
40075;BME280;26529;51.530;11.754;2022-08-18T00:39:30;99619.25;;;26.59;39.19
40075;BME280;26529;51.530;11.754;2022-08-18T00:41:58;99614.22;;;26.55;39.37
40075;BME280;26529;51.530;11.754;2022-08-18T00:44:24;99612.50;;;26.54;39.44
40075;BME280;26529;51.530;11.754;2022-08-18T00:46:50;99611.53;;;26.55;39.42
40075;BME280;26529;51.530;11.754;2022-08-18T00:49:15;99614.22;;;26.55;39.53
40075;BME280;26529;51.530;11.754;2022-08-18T00:51:46;99613.19;;;26.48;39.61
40075;BME280;26529;51.530;11.754;2022-08-18T00:54:21;99614.84;;;26.49;39.64
40075;BME280;26529;51.530;11.754;2022-08-18T00:56:50;99612.31;;;26.48;39.50
40075;BME280;26529;51.530;11.754;2022-08-18T00:59:25;99602.75;;;26.45;39.52
40075;BME280;26529;51.530;11.754;2022-08-18T01:01:55;99610.81;;;26.45;39.60
40075;BME280;26529;51.530;11.754;2022-08-18T01:04:55;99605.06;;;26.40;39.71
40075;BME280;26529;51.530;11.754;2022-08-18T01:07:29;99603.22;;;26.40;39.91
40075;BME280;26529;51.530;11.754;2022-08-18T01:09:58;99610.78;;;26.37;39.99
40075;BME280;26529;51.530;11.754;2022-08-18T01:12:25;99617.97;;;26.36;39.79
40075;BME280;26529;51.530;11.754;2022-08-18T01:14:52;99609.56;;;26.31;40.07
40075;BME280;26529;51.530;11.754;2022-08-18T01:17:18;99609.75;;;26.30;40.18
40075;BME280;26529;51.530;11.754;2022-08-18T01:20:03;99608.06;;;26.28;40.12
40075;BME280;26529;51.530;11.754;2022-08-18T01:25:22;99611.72;;;26.27;40.28
40075;BME280;26529;51.530;11.754;2022-08-18T01:28:06;99601.31;;;26.24;40.15
40075;BME280;26529;51.530;11.754;2022-08-18T01:30:47;99607.69;;;26.23;40.04
40075;BME280;26529;51.530;11.754;2022-08-18T01:33:13;99605.63;;;26.17;39.95
40075;BME280;26529;51.530;11.754;2022-08-18T01:35:42;99613.34;;;26.20;39.97
40075;BME280;26529;51.530;11.754;2022-08-18T01:38:12;99606.44;;;26.18;40.16
40075;BME280;26529;51.530;11.754;2022-08-18T01:40:38;99605.63;;;26.17;39.94
40075;BME280;26529;51.530;11.754;2022-08-18T01:43:03;99606.78;;;26.14;40.12
40075;BME280;26529;51.530;11.754;2022-08-18T01:45:30;99599.56;;;26.15;40.14
40075;BME280;26529;51.530;11.754;2022-08-18T01:47:58;99607.94;;;26.12;40.17
40075;BME280;26529;51.530;11.754;2022-08-18T01:50:24;99613.47;;;26.10;40.23
40075;BME280;26529;51.530;11.754;2022-08-18T01:52:50;99606.03;;;26.04;40.42
40075;BME280;26529;51.530;11.754;2022-08-18T01:55:18;99608.28;;;26.09;40.15
40075;BME280;26529;51.530;11.754;2022-08-18T01:57:44;99611.09;;;26.07;40.18
40075;BME280;26529;51.530;11.754;2022-08-18T02:00:12;99606.38;;;26.01;40.41
40075;BME280;26529;51.530;11.754;2022-08-18T02:02:39;99599.47;;;25.98;40.35
40075;BME280;26529;51.530;11.754;2022-08-18T02:05:17;99601.66;;;26.03;40.07
40075;BME280;26529;51.530;11.754;2022-08-18T02:07:45;99604.16;;;25.96;40.21
40075;BME280;26529;51.530;11.754;2022-08-18T02:10:11;99599.78;;;25.95;40.12
40075;BME280;26529;51.530;11.754;2022-08-18T02:12:38;99600.59;;;25.87;40.30
40075;BME280;26529;51.530;11.754;2022-08-18T02:15:05;99597.75;;;25.89;40.21
40075;BME280;26529;51.530;11.754;2022-08-18T02:17:37;99601.44;;;25.88;40.41
40075;BME280;26529;51.530;11.754;2022-08-18T02:20:05;99588.97;;;25.87;40.74
40075;BME280;26529;51.530;11.754;2022-08-18T02:22:30;99599.72;;;25.87;40.44
40075;BME280;26529;51.530;11.754;2022-08-18T02:24:56;99596.38;;;25.85;40.43
40075;BME280;26529;51.530;11.754;2022-08-18T02:27:22;99598.75;;;25.88;40.46
40075;BME280;26529;51.530;11.754;2022-08-18T02:29:48;99599.72;;;25.87;40.26
40075;BME280;26529;51.530;11.754;2022-08-18T02:32:13;99592.69;;;25.86;40.36
40075;BME280;26529;51.530;11.754;2022-08-18T02:34:39;99596.50;;;25.83;40.46
40075;BME280;26529;51.530;11.754;2022-08-18T02:37:07;99596.69;;;25.82;40.47
40075;BME280;26529;51.530;11.754;2022-08-18T02:39:35;99599.84;;;25.77;40.44
40075;BME280;26529;51.530;11.754;2022-08-18T02:42:05;99598.16;;;25.76;40.46
40075;BME280;26529;51.530;11.754;2022-08-18T02:44:31;99595.66;;;25.74;40.33
40075;BME280;26529;51.530;11.754;2022-08-18T02:46:58;99584.91;;;25.74;40.55
40075;BME280;26529;51.530;11.754;2022-08-18T02:49:23;99591.63;;;25.79;40.30
40075;BME280;26529;51.530;11.754;2022-08-18T02:51:51;99588.56;;;25.73;40.28
40075;BME280;26529;51.530;11.754;2022-08-18T02:54:18;99593.22;;;25.63;40.62
40075;BME280;26529;51.530;11.754;2022-08-18T02:56:45;99588.03;;;25.70;40.59
40075;BME280;26529;51.530;11.754;2022-08-18T02:59:18;99592.25;;;25.72;40.50
40075;BME280;26529;51.530;11.754;2022-08-18T03:01:47;99585.53;;;25.68;40.45
40075;BME280;26529;51.530;11.754;2022-08-18T03:04:15;99593.94;;;25.73;40.37
40075;BME280;26529;51.530;11.754;2022-08-18T03:06:41;99589.53;;;25.64;40.52
40075;BME280;26529;51.530;11.754;2022-08-18T03:09:09;99587.53;;;25.66;40.51
40075;BME280;26529;51.530;11.754;2022-08-18T03:11:35;99589.84;;;25.61;40.63
40075;BME280;26529;51.530;11.754;2022-08-18T03:14:02;99590.06;;;25.68;40.78
40075;BME280;26529;51.530;11.754;2022-08-18T03:16:30;99588.16;;;25.60;40.68
40075;BME280;26529;51.530;11.754;2022-08-18T03:18:58;99590.69;;;25.62;40.53
40075;BME280;26529;51.530;11.754;2022-08-18T03:21:26;99592.69;;;25.59;40.58
40075;BME280;26529;51.530;11.754;2022-08-18T03:23:53;99594.13;;;25.54;40.58
40075;BME280;26529;51.530;11.754;2022-08-18T03:26:22;99607.94;;;25.59;40.50
40075;BME280;26529;51.530;11.754;2022-08-18T03:28:50;99609.69;;;25.50;40.80
40075;BME280;26529;51.530;11.754;2022-08-18T03:31:17;99618.47;;;25.52;40.60
40075;BME280;26529;51.530;11.754;2022-08-18T03:33:44;99611.69;;;25.48;40.76
40075;BME280;26529;51.530;11.754;2022-08-18T03:36:14;99618.91;;;25.47;40.85
40075;BME280;26529;51.530;11.754;2022-08-18T03:38:40;99602.47;;;25.51;40.56
40075;BME280;26529;51.530;11.754;2022-08-18T03:41:09;99603.19;;;25.53;40.51
40075;BME280;26529;51.530;11.754;2022-08-18T03:43:35;99605.97;;;25.61;40.36
40075;BME280;26529;51.530;11.754;2022-08-18T03:46:06;99610.63;;;25.41;40.65
40075;BME280;26529;51.530;11.754;2022-08-18T03:48:35;99615.84;;;25.42;40.51
40075;BME280;26529;51.530;11.754;2022-08-18T03:51:12;99614.16;;;25.41;40.46
40075;BME280;26529;51.530;11.754;2022-08-18T03:53:39;99613.31;;;25.41;40.30
40075;BME280;26529;51.530;11.754;2022-08-18T03:56:07;99606.72;;;25.35;40.50
40075;BME280;26529;51.530;11.754;2022-08-18T03:58:34;99603.56;;;25.40;40.27
40075;BME280;26529;51.530;11.754;2022-08-18T04:01:01;99608.69;;;25.33;40.32
40075;BME280;26529;51.530;11.754;2022-08-18T04:03:28;99610.41;;;25.34;40.29
40075;BME280;26529;51.530;11.754;2022-08-18T04:05:54;99604.66;;;25.29;40.50
40075;BME280;26529;51.530;11.754;2022-08-18T04:08:20;99608.50;;;25.26;40.41
40075;BME280;26529;51.530;11.754;2022-08-18T04:10:46;99616.06;;;25.31;40.28
40075;BME280;26529;51.530;11.754;2022-08-18T04:13:12;99611.31;;;25.25;40.22
40075;BME280;26529;51.530;11.754;2022-08-18T04:15:37;99619.09;;;25.28;40.42
40075;BME280;26529;51.530;11.754;2022-08-18T04:18:03;99617.06;;;25.30;40.29
40075;BME280;26529;51.530;11.754;2022-08-18T04:20:30;99622.38;;;25.22;40.50
40075;BME280;26529;51.530;11.754;2022-08-18T04:22:59;99615.34;;;25.20;40.79
40075;BME280;26529;51.530;11.754;2022-08-18T04:25:25;99616.31;;;25.19;40.55
40075;BME280;26529;51.530;11.754;2022-08-18T04:27:52;99625.75;;;25.24;40.59
40075;BME280;26529;51.530;11.754;2022-08-18T04:30:24;99620.31;;;25.15;40.90
40075;BME280;26529;51.530;11.754;2022-08-18T04:32:50;99623.81;;;25.16;40.86
40075;BME280;26529;51.530;11.754;2022-08-18T04:35:16;99612.25;;;25.15;40.84
40075;BME280;26529;51.530;11.754;2022-08-18T04:37:42;99618.22;;;25.27;40.84
40075;BME280;26529;51.530;11.754;2022-08-18T04:40:09;99609.44;;;25.17;41.00
40075;BME280;26529;51.530;11.754;2022-08-18T04:42:35;99620.84;;;25.19;40.99
40075;BME280;26529;51.530;11.754;2022-08-18T04:45:02;99621.31;;;25.14;41.30
40075;BME280;26529;51.530;11.754;2022-08-18T04:47:28;99624.00;;;25.14;41.02
40075;BME280;26529;51.530;11.754;2022-08-18T04:49:53;99638.22;;;25.15;41.17
40075;BME280;26529;51.530;11.754;2022-08-18T04:52:19;99640.44;;;25.19;40.78
40075;BME280;26529;51.530;11.754;2022-08-18T04:55:04;99640.75;;;25.16;41.14
40075;BME280;26529;51.530;11.754;2022-08-18T04:57:30;99651.19;;;25.19;41.19
40075;BME280;26529;51.530;11.754;2022-08-18T04:59:58;99637.41;;;25.14;41.26
40075;BME280;26529;51.530;11.754;2022-08-18T05:02:24;99648.28;;;25.13;41.44
40075;BME280;26529;51.530;11.754;2022-08-18T05:04:50;99639.38;;;25.12;41.43
40075;BME280;26529;51.530;11.754;2022-08-18T05:07:19;99646.41;;;25.13;41.34
40075;BME280;26529;51.530;11.754;2022-08-18T05:09:45;99648.34;;;25.21;41.18
40075;BME280;26529;51.530;11.754;2022-08-18T05:12:13;99652.09;;;25.10;41.59
40075;BME280;26529;51.530;11.754;2022-08-18T05:14:40;99662.50;;;25.13;41.67
40075;BME280;26529;51.530;11.754;2022-08-18T05:17:06;99657.59;;;25.09;41.70
40075;BME280;26529;51.530;11.754;2022-08-18T05:19:32;99657.94;;;25.05;41.77
40075;BME280;26529;51.530;11.754;2022-08-18T05:22:00;99654.94;;;25.09;41.70
40075;BME280;26529;51.530;11.754;2022-08-18T05:24:27;99652.72;;;25.04;41.95
40075;BME280;26529;51.530;11.754;2022-08-18T05:26:53;99658.59;;;25.08;41.87
40075;BME280;26529;51.530;11.754;2022-08-18T05:29:20;99664.13;;;25.06;42.08
40075;BME280;26529;51.530;11.754;2022-08-18T05:31:47;99659.53;;;25.16;41.83
40075;BME280;26529;51.530;11.754;2022-08-18T05:34:14;99658.53;;;25.17;41.99
40075;BME280;26529;51.530;11.754;2022-08-18T05:39:14;99656.63;;;25.10;42.00
40075;BME280;26529;51.530;11.754;2022-08-18T05:44:21;99656.25;;;25.04;42.11
40075;BME280;26529;51.530;11.754;2022-08-18T05:46:55;99652.72;;;25.04;42.35
40075;BME280;26529;51.530;11.754;2022-08-18T05:49:25;99655.78;;;25.09;42.27
40075;BME280;26529;51.530;11.754;2022-08-18T05:51:55;99655.09;;;25.07;42.55
40075;BME280;26529;51.530;11.754;2022-08-18T05:54:24;99659.47;;;25.08;42.26
40075;BME280;26529;51.530;11.754;2022-08-18T05:57:14;99664.44;;;25.03;42.54
40075;BME280;26529;51.530;11.754;2022-08-18T05:59:42;99667.88;;;25.13;42.40
40075;BME280;26529;51.530;11.754;2022-08-18T06:05:00;99667.13;;;25.03;42.44
40075;BME280;26529;51.530;11.754;2022-08-18T06:07:43;99664.72;;;25.00;42.47
40075;BME280;26529;51.530;11.754;2022-08-18T06:10:12;99675.03;;;25.04;42.65
40075;BME280;26529;51.530;11.754;2022-08-18T06:12:47;99672.75;;;25.00;42.79
40075;BME280;26529;51.530;11.754;2022-08-18T06:18:43;99678.00;;;25.01;42.64
40075;BME280;26529;51.530;11.754;2022-08-18T06:35:44;99689.56;;;25.02;42.89
40075;BME280;26529;51.530;11.754;2022-08-18T06:41:22;99692.94;;;25.04;43.29
40075;BME280;26529;51.530;11.754;2022-08-18T06:49:03;99695.03;;;25.10;43.14
40075;BME280;26529;51.530;11.754;2022-08-18T06:51:30;99696.16;;;25.08;43.22
40075;BME280;26529;51.530;11.754;2022-08-18T06:54:06;99698.69;;;25.09;43.11
40075;BME280;26529;51.530;11.754;2022-08-18T06:56:46;99695.03;;;25.10;43.20
40075;BME280;26529;51.530;11.754;2022-08-18T07:02:00;99700.53;;;25.09;43.49
40075;BME280;26529;51.530;11.754;2022-08-18T07:07:45;99699.47;;;25.19;43.50
40075;BME280;26529;51.530;11.754;2022-08-18T07:10:52;99706.44;;;25.12;43.23
40075;BME280;26529;51.530;11.754;2022-08-18T07:13:26;99698.09;;;25.15;43.44
40075;BME280;26529;51.530;11.754;2022-08-18T07:15:54;99701.78;;;25.14;43.39
40075;BME280;26529;51.530;11.754;2022-08-18T07:18:24;99702.53;;;25.25;43.33
40075;BME280;26529;51.530;11.754;2022-08-18T07:20:54;99704.00;;;25.19;43.31
40075;BME280;26529;51.530;11.754;2022-08-18T07:26:01;99709.66;;;25.16;43.36
40075;BME280;26529;51.530;11.754;2022-08-18T07:28:28;99710.50;;;25.16;43.71
40075;BME280;26529;51.530;11.754;2022-08-18T07:31:15;99705.16;;;25.16;43.45
40075;BME280;26529;51.530;11.754;2022-08-18T07:33:55;99711.91;;;25.20;43.52
40075;BME280;26529;51.530;11.754;2022-08-18T07:36:25;99707.97;;;25.15;43.69
40075;BME280;26529;51.530;11.754;2022-08-18T07:38:57;99713.28;;;25.25;43.65
40075;BME280;26529;51.530;11.754;2022-08-18T07:41:48;99707.69;;;25.18;43.55
40075;BME280;26529;51.530;11.754;2022-08-18T07:44:49;99719.97;;;25.20;43.66
40075;BME280;26529;51.530;11.754;2022-08-18T07:47:22;99726.00;;;25.23;43.72
40075;BME280;26529;51.530;11.754;2022-08-18T07:49:50;99719.63;;;25.24;43.70
40075;BME280;26529;51.530;11.754;2022-08-18T07:52:21;99725.53;;;25.27;43.70
40075;BME280;26529;51.530;11.754;2022-08-18T07:57:52;99737.56;;;25.23;43.41
40075;BME280;26529;51.530;11.754;2022-08-18T08:00:28;99741.78;;;25.26;43.67
40075;BME280;26529;51.530;11.754;2022-08-18T08:03:10;99754.53;;;25.24;43.63
40075;BME280;26529;51.530;11.754;2022-08-18T08:05:59;99755.19;;;25.26;43.51
40075;BME280;26529;51.530;11.754;2022-08-18T08:08:34;99766.53;;;25.19;43.71
40075;BME280;26529;51.530;11.754;2022-08-18T08:11:32;99768.47;;;25.27;43.70
40075;BME280;26529;51.530;11.754;2022-08-18T08:17:05;99776.78;;;25.34;43.78
40075;BME280;26529;51.530;11.754;2022-08-18T08:22:16;99787.19;;;25.37;44.01
40075;BME280;26529;51.530;11.754;2022-08-18T08:24:49;99784.91;;;25.42;43.90
40075;BME280;26529;51.530;11.754;2022-08-18T08:27:38;99775.59;;;25.37;43.69
40075;BME280;26529;51.530;11.754;2022-08-18T08:30:13;99779.00;;;25.39;43.69
40075;BME280;26529;51.530;11.754;2022-08-18T08:32:51;99778.75;;;25.32;43.67
40075;BME280;26529;51.530;11.754;2022-08-18T08:35:36;99780.16;;;25.36;43.44
40075;BME280;26529;51.530;11.754;2022-08-18T08:38:14;99777.31;;;25.38;43.39
40075;BME280;26529;51.530;11.754;2022-08-18T08:40:56;99775.06;;;25.33;43.47
40075;BME280;26529;51.530;11.754;2022-08-18T08:43:31;99768.09;;;25.40;43.46
40075;BME280;26529;51.530;11.754;2022-08-18T08:46:12;99762.03;;;25.38;43.28
40075;BME280;26529;51.530;11.754;2022-08-18T08:48:43;99763.97;;;25.46;43.49
40075;BME280;26529;51.530;11.754;2022-08-18T08:51:25;99761.16;;;25.47;43.32
40075;BME280;26529;51.530;11.754;2022-08-18T08:57:29;99743.34;;;25.46;43.25
40075;BME280;26529;51.530;11.754;2022-08-18T08:59:57;99745.88;;;25.48;43.45
40075;BME280;26529;51.530;11.754;2022-08-18T09:02:33;99745.06;;;25.47;43.17
40075;BME280;26529;51.530;11.754;2022-08-18T09:05:10;99741.38;;;25.49;43.40
40075;BME280;26529;51.530;11.754;2022-08-18T09:16:43;99742.38;;;25.47;43.84
40075;BME280;26529;51.530;11.754;2022-08-18T09:22:02;99749.09;;;25.52;44.72
40075;BME280;26529;51.530;11.754;2022-08-18T09:24:38;99755.00;;;25.37;44.37
40075;BME280;26529;51.530;11.754;2022-08-18T09:27:29;99738.28;;;25.43;44.16
40075;BME280;26529;51.530;11.754;2022-08-18T09:29:58;99724.25;;;25.50;44.49
40075;BME280;26529;51.530;11.754;2022-08-18T09:38:08;99724.09;;;25.33;45.07
40075;BME280;26529;51.530;11.754;2022-08-18T09:41:04;99730.31;;;25.52;44.76
40075;BME280;26529;51.530;11.754;2022-08-18T09:46:59;99751.38;;;25.46;44.57
40075;BME280;26529;51.530;11.754;2022-08-18T09:54:29;99754.22;;;25.55;44.87
40075;BME280;26529;51.530;11.754;2022-08-18T10:01:58;99756.91;;;25.55;45.00
40075;BME280;26529;51.530;11.754;2022-08-18T10:04:28;99761.69;;;25.51;45.28
40075;BME280;26529;51.530;11.754;2022-08-18T10:07:34;99758.28;;;25.49;44.90
40075;BME280;26529;51.530;11.754;2022-08-18T10:18:48;99775.25;;;25.50;44.97
40075;BME280;26529;51.530;11.754;2022-08-18T10:21:19;99785.41;;;25.56;45.10
40075;BME280;26529;51.530;11.754;2022-08-18T10:28:59;99769.88;;;25.50;44.54
40075;BME280;26529;51.530;11.754;2022-08-18T10:31:27;99779.72;;;25.59;44.72
40075;BME280;26529;51.530;11.754;2022-08-18T10:34:10;99775.25;;;25.50;45.22
40075;BME280;26529;51.530;11.754;2022-08-18T10:39:06;99778.59;;;25.62;45.50
40075;BME280;26529;51.530;11.754;2022-08-18T10:41:36;99789.97;;;25.45;45.49
40075;BME280;26529;51.530;11.754;2022-08-18T10:44:04;99793.97;;;25.41;46.16
40075;BME280;26529;51.530;11.754;2022-08-18T10:46:34;99791.78;;;25.55;46.14
40075;BME280;26529;51.530;11.754;2022-08-18T10:51:55;99790.47;;;25.59;46.19
40075;BME280;26529;51.530;11.754;2022-08-18T10:54:44;99796.44;;;25.53;45.78
40075;BME280;26529;51.530;11.754;2022-08-18T10:57:47;99798.69;;;25.57;45.31
40075;BME280;26529;51.530;11.754;2022-08-18T11:00:21;99792.16;;;25.60;45.40
40075;BME280;26529;51.530;11.754;2022-08-18T11:05:19;99802.59;;;25.63;45.03
40075;BME280;26529;51.530;11.754;2022-08-18T11:07:47;99810.25;;;25.58;45.36
40075;BME280;26529;51.530;11.754;2022-08-18T11:10:40;99812.25;;;25.56;44.94
40075;BME280;26529;51.530;11.754;2022-08-18T11:16:06;99816.19;;;25.52;45.25
40075;BME280;26529;51.530;11.754;2022-08-18T11:18:53;99807.72;;;25.56;44.90
40075;BME280;26529;51.530;11.754;2022-08-18T11:21:22;99807.13;;;25.63;45.26
40075;BME280;26529;51.530;11.754;2022-08-18T11:26:32;99813.84;;;25.49;45.63
40075;BME280;26529;51.530;11.754;2022-08-18T11:31:44;99804.50;;;25.53;45.24
40075;BME280;26529;51.530;11.754;2022-08-18T11:34:17;99802.91;;;25.60;45.36
40075;BME280;26529;51.530;11.754;2022-08-18T11:36:43;99802.78;;;25.52;45.43
40075;BME280;26529;51.530;11.754;2022-08-18T11:39:10;99797.41;;;25.52;45.80
40075;BME280;26529;51.530;11.754;2022-08-18T11:41:36;99793.31;;;25.57;45.96
40075;BME280;26529;51.530;11.754;2022-08-18T11:44:05;99783.97;;;25.62;45.57
40075;BME280;26529;51.530;11.754;2022-08-18T11:46:38;99779.34;;;25.54;45.91
40075;BME280;26529;51.530;11.754;2022-08-18T11:49:31;99777.75;;;25.61;45.80
40075;BME280;26529;51.530;11.754;2022-08-18T11:52:00;99770.84;;;25.77;45.85
40075;BME280;26529;51.530;11.754;2022-08-18T11:54:38;99778.06;;;25.58;46.17
40075;BME280;26529;51.530;11.754;2022-08-18T11:57:41;99773.69;;;25.57;46.41
40075;BME280;26529;51.530;11.754;2022-08-18T12:00:51;99758.97;;;25.61;46.37
40075;BME280;26529;51.530;11.754;2022-08-18T12:06:17;99753.28;;;25.64;45.76
40075;BME280;26529;51.530;11.754;2022-08-18T12:09:00;99747.22;;;25.62;46.04
40075;BME280;26529;51.530;11.754;2022-08-18T12:11:30;99744.47;;;25.72;46.19
40075;BME280;26529;51.530;11.754;2022-08-18T12:14:00;99738.72;;;25.67;45.92
40075;BME280;26529;51.530;11.754;2022-08-18T12:16:33;99742.88;;;25.61;46.18
40075;BME280;26529;51.530;11.754;2022-08-18T12:19:00;99741.78;;;25.72;46.03
40075;BME280;26529;51.530;11.754;2022-08-18T12:21:26;99749.66;;;25.73;46.37
40075;BME280;26529;51.530;11.754;2022-08-18T12:23:52;99747.69;;;25.76;45.91
40075;BME280;26529;51.530;11.754;2022-08-18T12:26:18;99734.03;;;25.69;46.15
40075;BME280;26529;51.530;11.754;2022-08-18T12:28:45;99740.03;;;25.81;46.26
40075;BME280;26529;51.530;11.754;2022-08-18T12:31:10;99736.34;;;25.82;45.96
40075;BME280;26529;51.530;11.754;2022-08-18T12:33:36;99735.25;;;25.74;46.10
40075;BME280;26529;51.530;11.754;2022-08-18T12:36:03;99726.88;;;25.78;46.08
40075;BME280;26529;51.530;11.754;2022-08-18T12:38:31;99719.16;;;25.74;46.36
40075;BME280;26529;51.530;11.754;2022-08-18T12:40:57;99726.81;;;25.69;46.26
40075;BME280;26529;51.530;11.754;2022-08-18T12:43:24;99725.34;;;25.75;46.34
40075;BME280;26529;51.530;11.754;2022-08-18T12:45:50;99726.41;;;25.82;46.33
40075;BME280;26529;51.530;11.754;2022-08-18T12:48:16;99714.84;;;25.82;46.25
40075;BME280;26529;51.530;11.754;2022-08-18T12:50:43;99722.53;;;25.77;46.18
40075;BME280;26529;51.530;11.754;2022-08-18T12:53:10;99720.50;;;25.79;46.36
40075;BME280;26529;51.530;11.754;2022-08-18T12:55:41;99724.59;;;25.83;46.18
40075;BME280;26529;51.530;11.754;2022-08-18T12:58:08;99714.84;;;25.82;46.15
40075;BME280;26529;51.530;11.754;2022-08-18T13:00:34;99719.84;;;25.77;46.16
40075;BME280;26529;51.530;11.754;2022-08-18T13:03:00;99718.84;;;25.78;46.16
40075;BME280;26529;51.530;11.754;2022-08-18T13:05:26;99716.81;;;25.80;46.17
40075;BME280;26529;51.530;11.754;2022-08-18T13:07:55;99719.91;;;25.85;46.43
40075;BME280;26529;51.530;11.754;2022-08-18T13:10:22;99711.38;;;25.90;46.03
40075;BME280;26529;51.530;11.754;2022-08-18T13:12:47;99704.09;;;25.82;46.25
40075;BME280;26529;51.530;11.754;2022-08-18T13:15:13;99699.56;;;25.82;46.15
40075;BME280;26529;51.530;11.754;2022-08-18T13:17:39;99694.72;;;25.86;45.93
40075;BME280;26529;51.530;11.754;2022-08-18T13:20:10;99690.34;;;25.85;45.78
40075;BME280;26529;51.530;11.754;2022-08-18T13:22:37;99701.78;;;25.87;45.69
40075;BME280;26529;51.530;11.754;2022-08-18T13:25:08;99695.97;;;25.92;45.44
40075;BME280;26529;51.530;11.754;2022-08-18T13:27:35;99700.94;;;25.86;45.69
40075;BME280;26529;51.530;11.754;2022-08-18T13:30:03;99703.50;;;25.88;45.81
40075;BME280;26529;51.530;11.754;2022-08-18T13:32:30;99713.91;;;25.91;45.45
40075;BME280;26529;51.530;11.754;2022-08-18T13:34:55;99721.28;;;25.89;45.58
40075;BME280;26529;51.530;11.754;2022-08-18T13:37:21;99727.47;;;25.90;45.52
40075;BME280;26529;51.530;11.754;2022-08-18T13:39:50;99730.03;;;25.91;45.26
40075;BME280;26529;51.530;11.754;2022-08-18T13:42:16;99737.06;;;25.92;45.53
40075;BME280;26529;51.530;11.754;2022-08-18T13:44:42;99733.38;;;25.93;45.36
40075;BME280;26529;51.530;11.754;2022-08-18T13:47:07;99741.28;;;25.95;45.41
40075;BME280;26529;51.530;11.754;2022-08-18T13:49:33;99743.16;;;25.94;45.39
40075;BME280;26529;51.530;11.754;2022-08-18T13:51:59;99736.38;;;25.90;45.61
40075;BME280;26529;51.530;11.754;2022-08-18T13:54:27;99736.78;;;25.95;45.24
40075;BME280;26529;51.530;11.754;2022-08-18T13:56:53;99721.34;;;25.97;45.15
40075;BME280;26529;51.530;11.754;2022-08-18T13:59:20;99713.44;;;25.96;45.36
40075;BME280;26529;51.530;11.754;2022-08-18T14:01:47;99710.59;;;25.97;45.32
40075;BME280;26529;51.530;11.754;2022-08-18T14:04:14;99720.66;;;25.95;45.22
40075;BME280;26529;51.530;11.754;2022-08-18T14:06:40;99721.34;;;25.97;45.41
40075;BME280;26529;51.530;11.754;2022-08-18T14:09:06;99714.97;;;25.98;45.29
40075;BME280;26529;51.530;11.754;2022-08-18T14:11:33;99721.88;;;26.01;45.12
40075;BME280;26529;51.530;11.754;2022-08-18T14:14:00;99724.34;;;25.94;45.21
40075;BME280;26529;51.530;11.754;2022-08-18T14:16:25;99722.34;;;25.96;45.16
40075;BME280;26529;51.530;11.754;2022-08-18T14:18:51;99721.50;;;25.96;45.11
40075;BME280;26529;51.530;11.754;2022-08-18T14:21:39;99717.50;;;26.00;44.98
40075;BME280;26529;51.530;11.754;2022-08-18T14:24:24;99704.91;;;26.00;45.01
40075;BME280;26529;51.530;11.754;2022-08-18T14:27:08;99694.34;;;25.99;45.15
40075;BME280;26529;51.530;11.754;2022-08-18T14:29:34;99686.94;;;26.01;44.89
40075;BME280;26529;51.530;11.754;2022-08-18T14:32:00;99670.69;;;26.03;45.00
40075;BME280;26529;51.530;11.754;2022-08-18T14:34:25;99662.63;;;26.03;44.79
40075;BME280;26529;51.530;11.754;2022-08-18T14:36:51;99661.56;;;25.95;45.37
40075;BME280;26529;51.530;11.754;2022-08-18T14:39:16;99669.16;;;26.00;44.89
40075;BME280;26529;51.530;11.754;2022-08-18T14:41:42;99665.94;;;25.96;45.09
40075;BME280;26529;51.530;11.754;2022-08-18T14:44:08;99670.16;;;25.99;45.04
40075;BME280;26529;51.530;11.754;2022-08-18T14:46:35;99673.66;;;25.99;45.15
40075;BME280;26529;51.530;11.754;2022-08-18T14:49:01;99669.53;;;26.05;45.10
40075;BME280;26529;51.530;11.754;2022-08-18T14:51:26;99669.69;;;26.04;44.87
40075;BME280;26529;51.530;11.754;2022-08-18T14:53:52;99653.88;;;26.00;45.21
40075;BME280;26529;51.530;11.754;2022-08-18T14:56:17;99659.75;;;26.04;45.10
40075;BME280;26529;51.530;11.754;2022-08-18T14:58:43;99659.56;;;25.97;45.41
40075;BME280;26529;51.530;11.754;2022-08-18T15:01:09;99660.94;;;26.01;45.25
40075;BME280;26529;51.530;11.754;2022-08-18T15:03:38;99660.63;;;26.05;44.96
40075;BME280;26529;51.530;11.754;2022-08-18T15:06:05;99648.19;;;26.04;45.16
40075;BME280;26529;51.530;11.754;2022-08-18T15:08:33;99647.03;;;26.06;45.16